sensor_id;sensor_type;location;lat;lon;timestamp;temperature;humidity
10662;DHT22;5379;51.034;7.006;2023-11-21T00:03:35;11.10;99.90
10662;DHT22;5379;51.034;7.006;2023-11-21T00:06:02;11.20;99.90
10662;DHT22;5379;51.034;7.006;2023-11-21T00:08:29;13.10;99.90
10662;DHT22;5379;51.034;7.006;2023-11-21T00:10:56;11.20;99.90
10662;DHT22;5379;51.034;7.006;2023-11-21T00:13:23;11.20;99.90
10662;DHT22;5379;51.034;7.006;2023-11-21T00:15:52;11.10;99.90
10662;DHT22;5379;51.034;7.006;2023-11-21T00:18:19;11.10;99.90
10662;DHT22;5379;51.034;7.006;2023-11-21T00:20:45;11.10;99.90
10662;DHT22;5379;51.034;7.006;2023-11-21T00:23:12;11.10;99.90
10662;DHT22;5379;51.034;7.006;2023-11-21T00:28:06;11.00;99.90
10662;DHT22;5379;51.034;7.006;2023-11-21T00:30:33;10.90;99.90
10662;DHT22;5379;51.034;7.006;2023-11-21T00:33:01;10.90;99.90
10662;DHT22;5379;51.034;7.006;2023-11-21T00:35:29;10.90;99.90
10662;DHT22;5379;51.034;7.006;2023-11-21T00:37:56;10.80;99.90
10662;DHT22;5379;51.034;7.006;2023-11-21T00:40:24;10.80;99.90
10662;DHT22;5379;51.034;7.006;2023-11-21T00:42:50;10.90;99.90
10662;DHT22;5379;51.034;7.006;2023-11-21T00:45:17;10.70;99.90
10662;DHT22;5379;51.034;7.006;2023-11-21T00:47:44;10.60;99.90
10662;DHT22;5379;51.034;7.006;2023-11-21T00:50:12;10.50;99.90
10662;DHT22;5379;51.034;7.006;2023-11-21T00:52:39;10.50;99.90
10662;DHT22;5379;51.034;7.006;2023-11-21T00:55:07;10.40;99.90
10662;DHT22;5379;51.034;7.006;2023-11-21T00:57:34;10.30;99.90
10662;DHT22;5379;51.034;7.006;2023-11-21T01:00:01;11.30;99.90
10662;DHT22;5379;51.034;7.006;2023-11-21T05:32:40;10.50;99.90
10662;DHT22;5379;51.034;7.006;2023-11-21T05:35:08;10.50;99.90
10662;DHT22;5379;51.034;7.006;2023-11-21T05:37:39;10.50;99.90
10662;DHT22;5379;51.034;7.006;2023-11-21T05:40:07;10.60;99.90
10662;DHT22;5379;51.034;7.006;2023-11-21T05:42:35;10.60;99.90
10662;DHT22;5379;51.034;7.006;2023-11-21T05:47:31;10.50;99.90
10662;DHT22;5379;51.034;7.006;2023-11-21T05:49:59;10.50;99.90
10662;DHT22;5379;51.034;7.006;2023-11-21T05:52:26;10.60;99.90
10662;DHT22;5379;51.034;7.006;2023-11-21T05:54:53;10.40;99.90
10662;DHT22;5379;51.034;7.006;2023-11-21T05:57:20;10.40;99.90
10662;DHT22;5379;51.034;7.006;2023-11-21T05:59:47;10.50;99.90
10662;DHT22;5379;51.034;7.006;2023-11-21T06:02:13;10.50;99.90
10662;DHT22;5379;51.034;7.006;2023-11-21T06:04:40;10.60;99.90
10662;DHT22;5379;51.034;7.006;2023-11-21T06:07:08;10.60;99.90
10662;DHT22;5379;51.034;7.006;2023-11-21T06:09:36;10.60;99.90
10662;DHT22;5379;51.034;7.006;2023-11-21T06:12:04;10.60;99.90
10662;DHT22;5379;51.034;7.006;2023-11-21T06:14:31;10.60;99.90
10662;DHT22;5379;51.034;7.006;2023-11-21T06:16:58;10.60;99.90
10662;DHT22;5379;51.034;7.006;2023-11-21T06:19:25;10.60;99.90
10662;DHT22;5379;51.034;7.006;2023-11-21T06:21:52;10.60;99.90
10662;DHT22;5379;51.034;7.006;2023-11-21T06:26:48;10.40;99.90
10662;DHT22;5379;51.034;7.006;2023-11-21T06:29:15;10.40;99.90
10662;DHT22;5379;51.034;7.006;2023-11-21T06:31:41;10.50;99.90
10662;DHT22;5379;51.034;7.006;2023-11-21T06:34:09;11.80;99.90
10662;DHT22;5379;51.034;7.006;2023-11-21T06:36:36;10.50;99.90
10662;DHT22;5379;51.034;7.006;2023-11-21T06:39:03;10.50;99.90
10662;DHT22;5379;51.034;7.006;2023-11-21T06:41:33;10.50;99.90
10662;DHT22;5379;51.034;7.006;2023-11-21T06:44:00;10.60;99.90
10662;DHT22;5379;51.034;7.006;2023-11-21T06:46:28;10.60;99.90
10662;DHT22;5379;51.034;7.006;2023-11-21T06:48:55;10.60;99.90
10662;DHT22;5379;51.034;7.006;2023-11-21T06:51:21;10.50;99.90
10662;DHT22;5379;51.034;7.006;2023-11-21T06:53:48;10.40;99.90
10662;DHT22;5379;51.034;7.006;2023-11-21T06:56:16;10.40;99.90
10662;DHT22;5379;51.034;7.006;2023-11-21T06:58:45;10.50;99.90
10662;DHT22;5379;51.034;7.006;2023-11-21T07:01:12;10.90;99.90
10662;DHT22;5379;51.034;7.006;2023-11-21T07:03:39;10.50;99.90
10662;DHT22;5379;51.034;7.006;2023-11-21T07:06:07;10.60;99.90
10662;DHT22;5379;51.034;7.006;2023-11-21T07:08:34;10.50;99.90
10662;DHT22;5379;51.034;7.006;2023-11-21T07:11:01;10.50;99.90
10662;DHT22;5379;51.034;7.006;2023-11-21T07:13:28;10.60;99.90
10662;DHT22;5379;51.034;7.006;2023-11-21T07:15:57;10.60;99.90
10662;DHT22;5379;51.034;7.006;2023-11-21T07:18:24;10.60;99.90
10662;DHT22;5379;51.034;7.006;2023-11-21T07:20:51;11.20;99.90
10662;DHT22;5379;51.034;7.006;2023-11-21T07:23:18;10.50;99.90
10662;DHT22;5379;51.034;7.006;2023-11-21T07:25:45;10.60;99.90
10662;DHT22;5379;51.034;7.006;2023-11-21T07:28:12;10.70;99.90
10662;DHT22;5379;51.034;7.006;2023-11-21T07:30:39;11.90;99.90
10662;DHT22;5379;51.034;7.006;2023-11-21T07:33:07;10.80;99.90
10662;DHT22;5379;51.034;7.006;2023-11-21T07:35:34;11.90;99.90
10662;DHT22;5379;51.034;7.006;2023-11-21T07:38:01;10.80;99.90
10662;DHT22;5379;51.034;7.006;2023-11-21T07:40:29;10.80;99.90
10662;DHT22;5379;51.034;7.006;2023-11-21T07:42:56;10.70;99.90
10662;DHT22;5379;51.034;7.006;2023-11-21T07:45:23;13.10;99.90
10662;DHT22;5379;51.034;7.006;2023-11-21T07:50:28;10.70;99.90
10662;DHT22;5379;51.034;7.006;2023-11-21T07:52:55;10.80;99.90
10662;DHT22;5379;51.034;7.006;2023-11-21T07:55:22;10.70;99.90
10662;DHT22;5379;51.034;7.006;2023-11-21T08:00:18;10.80;99.90
10662;DHT22;5379;51.034;7.006;2023-11-21T08:05:14;10.80;99.90
10662;DHT22;5379;51.034;7.006;2023-11-21T08:07:42;10.90;99.90
10662;DHT22;5379;51.034;7.006;2023-11-21T08:10:09;10.90;99.90
10662;DHT22;5379;51.034;7.006;2023-11-21T08:12:37;10.80;99.90
10662;DHT22;5379;51.034;7.006;2023-11-21T08:15:05;10.80;99.90
10662;DHT22;5379;51.034;7.006;2023-11-21T08:17:32;10.80;99.90
10662;DHT22;5379;51.034;7.006;2023-11-21T08:19:59;10.90;99.90
10662;DHT22;5379;51.034;7.006;2023-11-21T08:22:26;11.10;99.90
10662;DHT22;5379;51.034;7.006;2023-11-21T08:24:54;10.90;99.90
10662;DHT22;5379;51.034;7.006;2023-11-21T08:27:22;11.00;99.90
10662;DHT22;5379;51.034;7.006;2023-11-21T08:29:49;11.00;99.90
10662;DHT22;5379;51.034;7.006;2023-11-21T08:32:16;11.00;99.90
10662;DHT22;5379;51.034;7.006;2023-11-21T08:34:43;11.00;99.90
10662;DHT22;5379;51.034;7.006;2023-11-21T08:37:11;11.00;99.90
10662;DHT22;5379;51.034;7.006;2023-11-21T08:39:37;11.30;99.90
10662;DHT22;5379;51.034;7.006;2023-11-21T08:42:06;11.10;99.90
10662;DHT22;5379;51.034;7.006;2023-11-21T08:44:33;11.10;99.90
10662;DHT22;5379;51.034;7.006;2023-11-21T08:47:00;12.90;99.90
10662;DHT22;5379;51.034;7.006;2023-11-21T08:49:27;11.20;99.90
10662;DHT22;5379;51.034;7.006;2023-11-21T08:51:55;11.10;99.90
10662;DHT22;5379;51.034;7.006;2023-11-21T08:54:24;11.10;99.90
10662;DHT22;5379;51.034;7.006;2023-11-21T08:56:51;11.20;99.90
10662;DHT22;5379;51.034;7.006;2023-11-21T08:59:19;11.20;99.90
10662;DHT22;5379;51.034;7.006;2023-11-21T09:01:47;11.60;99.90
10662;DHT22;5379;51.034;7.006;2023-11-21T09:04:13;11.30;99.90
10662;DHT22;5379;51.034;7.006;2023-11-21T09:06:39;11.30;99.90
10662;DHT22;5379;51.034;7.006;2023-11-21T09:09:06;11.10;99.90
10662;DHT22;5379;51.034;7.006;2023-11-21T09:11:35;11.10;99.90
10662;DHT22;5379;51.034;7.006;2023-11-21T09:14:02;11.20;99.90
10662;DHT22;5379;51.034;7.006;2023-11-21T09:16:31;11.20;99.90
10662;DHT22;5379;51.034;7.006;2023-11-21T09:18:58;11.30;99.90
10662;DHT22;5379;51.034;7.006;2023-11-21T09:21:25;11.40;99.90
10662;DHT22;5379;51.034;7.006;2023-11-21T09:23:53;11.30;99.90
10662;DHT22;5379;51.034;7.006;2023-11-21T09:26:20;11.30;99.90
10662;DHT22;5379;51.034;7.006;2023-11-21T09:28:46;11.40;99.90
10662;DHT22;5379;51.034;7.006;2023-11-21T09:31:13;11.30;99.90
10662;DHT22;5379;51.034;7.006;2023-11-21T09:33:42;11.30;99.90
10662;DHT22;5379;51.034;7.006;2023-11-21T09:36:11;11.40;99.90
10662;DHT22;5379;51.034;7.006;2023-11-21T09:38:40;11.30;99.90
10662;DHT22;5379;51.034;7.006;2023-11-21T09:41:14;11.40;99.90
10662;DHT22;5379;51.034;7.006;2023-11-21T09:43:44;11.50;99.90
10662;DHT22;5379;51.034;7.006;2023-11-21T09:46:12;11.60;99.90
10662;DHT22;5379;51.034;7.006;2023-11-21T09:48:48;11.50;99.90
10662;DHT22;5379;51.034;7.006;2023-11-21T09:51:19;11.60;99.90
10662;DHT22;5379;51.034;7.006;2023-11-21T09:53:49;11.60;99.90
10662;DHT22;5379;51.034;7.006;2023-11-21T09:56:17;11.60;99.90
10662;DHT22;5379;51.034;7.006;2023-11-21T09:58:51;11.50;99.90
10662;DHT22;5379;51.034;7.006;2023-11-21T10:01:19;11.40;99.90
10662;DHT22;5379;51.034;7.006;2023-11-21T10:03:48;11.50;99.90
10662;DHT22;5379;51.034;7.006;2023-11-21T10:06:16;11.50;99.90
10662;DHT22;5379;51.034;7.006;2023-11-21T10:08:44;11.50;99.90
10662;DHT22;5379;51.034;7.006;2023-11-21T10:11:12;11.60;99.90
10662;DHT22;5379;51.034;7.006;2023-11-21T10:13:41;11.60;99.90
10662;DHT22;5379;51.034;7.006;2023-11-21T10:16:10;11.40;99.90
10662;DHT22;5379;51.034;7.006;2023-11-21T10:18:39;11.60;99.90
10662;DHT22;5379;51.034;7.006;2023-11-21T10:21:08;11.60;99.90
10662;DHT22;5379;51.034;7.006;2023-11-21T10:23:35;11.60;99.90
10662;DHT22;5379;51.034;7.006;2023-11-21T10:26:03;12.10;99.90
10662;DHT22;5379;51.034;7.006;2023-11-21T10:28:30;12.00;99.90
10662;DHT22;5379;51.034;7.006;2023-11-21T10:31:02;11.80;99.90
10662;DHT22;5379;51.034;7.006;2023-11-21T10:33:29;11.60;99.90
10662;DHT22;5379;51.034;7.006;2023-11-21T10:35:56;11.50;99.90
10662;DHT22;5379;51.034;7.006;2023-11-21T10:38:25;11.50;99.90
10662;DHT22;5379;51.034;7.006;2023-11-21T10:40:54;11.60;99.90
10662;DHT22;5379;51.034;7.006;2023-11-21T10:43:24;11.80;99.90
10662;DHT22;5379;51.034;7.006;2023-11-21T10:45:51;11.60;99.90
10662;DHT22;5379;51.034;7.006;2023-11-21T10:48:18;11.70;99.90
10662;DHT22;5379;51.034;7.006;2023-11-21T10:50:48;11.70;99.90
10662;DHT22;5379;51.034;7.006;2023-11-21T10:53:15;12.70;99.90
10662;DHT22;5379;51.034;7.006;2023-11-21T10:55:43;11.70;99.90
10662;DHT22;5379;51.034;7.006;2023-11-21T10:58:12;11.70;99.90
10662;DHT22;5379;51.034;7.006;2023-11-21T11:00:40;11.70;99.90
10662;DHT22;5379;51.034;7.006;2023-11-21T11:03:07;11.70;99.90
10662;DHT22;5379;51.034;7.006;2023-11-21T11:05:41;11.60;99.90
10662;DHT22;5379;51.034;7.006;2023-11-21T11:08:09;11.60;99.90
10662;DHT22;5379;51.034;7.006;2023-11-21T11:10:38;11.70;99.90
10662;DHT22;5379;51.034;7.006;2023-11-21T11:13:08;11.80;99.90
10662;DHT22;5379;51.034;7.006;2023-11-21T11:15:35;11.80;99.90
10662;DHT22;5379;51.034;7.006;2023-11-21T11:18:03;12.00;99.90
10662;DHT22;5379;51.034;7.006;2023-11-21T11:20:34;12.30;99.90
10662;DHT22;5379;51.034;7.006;2023-11-21T11:23:21;12.10;99.90
10662;DHT22;5379;51.034;7.006;2023-11-21T11:26:04;12.00;99.90
10662;DHT22;5379;51.034;7.006;2023-11-21T11:28:43;12.00;99.90
10662;DHT22;5379;51.034;7.006;2023-11-21T11:31:15;11.90;99.90
10662;DHT22;5379;51.034;7.006;2023-11-21T11:33:50;11.90;99.90
10662;DHT22;5379;51.034;7.006;2023-11-21T11:36:25;12.00;99.90
10662;DHT22;5379;51.034;7.006;2023-11-21T11:38:52;11.80;99.90
10662;DHT22;5379;51.034;7.006;2023-11-21T11:41:25;11.90;99.90
10662;DHT22;5379;51.034;7.006;2023-11-21T11:43:54;11.90;99.90
10662;DHT22;5379;51.034;7.006;2023-11-21T11:46:40;11.90;99.90
10662;DHT22;5379;51.034;7.006;2023-11-21T11:49:07;11.90;99.90
10662;DHT22;5379;51.034;7.006;2023-11-21T11:51:34;12.00;99.90
10662;DHT22;5379;51.034;7.006;2023-11-21T11:54:02;12.10;99.90
10662;DHT22;5379;51.034;7.006;2023-11-21T11:56:30;12.10;99.90
10662;DHT22;5379;51.034;7.006;2023-11-21T11:59:02;12.20;99.90
10662;DHT22;5379;51.034;7.006;2023-11-21T12:01:32;12.20;99.90
10662;DHT22;5379;51.034;7.006;2023-11-21T12:04:24;12.40;99.90
10662;DHT22;5379;51.034;7.006;2023-11-21T12:06:57;12.40;99.90
10662;DHT22;5379;51.034;7.006;2023-11-21T12:09:26;12.30;99.90
10662;DHT22;5379;51.034;7.006;2023-11-21T12:11:53;12.20;99.90
10662;DHT22;5379;51.034;7.006;2023-11-21T12:14:23;12.20;99.90
10662;DHT22;5379;51.034;7.006;2023-11-21T12:16:51;12.20;99.90
10662;DHT22;5379;51.034;7.006;2023-11-21T12:19:19;12.20;99.90
10662;DHT22;5379;51.034;7.006;2023-11-21T12:21:46;12.30;99.90
10662;DHT22;5379;51.034;7.006;2023-11-21T12:24:14;12.30;99.90
10662;DHT22;5379;51.034;7.006;2023-11-21T12:26:42;12.30;99.90
10662;DHT22;5379;51.034;7.006;2023-11-21T12:29:09;12.30;99.90
10662;DHT22;5379;51.034;7.006;2023-11-21T12:31:37;12.40;99.90
10662;DHT22;5379;51.034;7.006;2023-11-21T12:34:05;12.50;99.90
10662;DHT22;5379;51.034;7.006;2023-11-21T12:36:32;12.40;99.90
10662;DHT22;5379;51.034;7.006;2023-11-21T12:39:00;12.40;99.90
10662;DHT22;5379;51.034;7.006;2023-11-21T12:41:28;12.50;99.90
10662;DHT22;5379;51.034;7.006;2023-11-21T12:43:56;12.40;99.90
10662;DHT22;5379;51.034;7.006;2023-11-21T12:46:23;12.30;99.90
10662;DHT22;5379;51.034;7.006;2023-11-21T12:48:52;12.20;99.90
10662;DHT22;5379;51.034;7.006;2023-11-21T12:51:21;12.10;99.90
10662;DHT22;5379;51.034;7.006;2023-11-21T12:53:48;12.10;99.90
10662;DHT22;5379;51.034;7.006;2023-11-21T12:56:15;12.20;99.90
10662;DHT22;5379;51.034;7.006;2023-11-21T12:58:44;12.20;99.90
10662;DHT22;5379;51.034;7.006;2023-11-21T13:01:13;12.20;99.90
10662;DHT22;5379;51.034;7.006;2023-11-21T13:03:46;12.30;99.90
10662;DHT22;5379;51.034;7.006;2023-11-21T13:06:15;12.30;99.90
10662;DHT22;5379;51.034;7.006;2023-11-21T13:08:44;12.40;99.90
10662;DHT22;5379;51.034;7.006;2023-11-21T13:11:11;12.40;99.90
10662;DHT22;5379;51.034;7.006;2023-11-21T13:13:41;12.50;99.90
10662;DHT22;5379;51.034;7.006;2023-11-21T13:16:09;12.30;99.90
10662;DHT22;5379;51.034;7.006;2023-11-21T13:18:36;12.50;99.90
10662;DHT22;5379;51.034;7.006;2023-11-21T13:21:04;12.60;99.90
10662;DHT22;5379;51.034;7.006;2023-11-21T13:23:37;12.60;99.90
10662;DHT22;5379;51.034;7.006;2023-11-21T13:26:04;12.70;99.90
10662;DHT22;5379;51.034;7.006;2023-11-21T13:28:32;12.50;99.90
10662;DHT22;5379;51.034;7.006;2023-11-21T13:30:59;12.50;99.90
10662;DHT22;5379;51.034;7.006;2023-11-21T13:33:29;12.50;99.90
10662;DHT22;5379;51.034;7.006;2023-11-21T13:35:58;12.50;99.90
10662;DHT22;5379;51.034;7.006;2023-11-21T13:38:27;12.50;99.90
10662;DHT22;5379;51.034;7.006;2023-11-21T13:41:00;12.50;99.90
10662;DHT22;5379;51.034;7.006;2023-11-21T13:43:27;12.60;99.90
10662;DHT22;5379;51.034;7.006;2023-11-21T13:45:54;12.60;99.90
10662;DHT22;5379;51.034;7.006;2023-11-21T13:48:26;12.60;99.90
10662;DHT22;5379;51.034;7.006;2023-11-21T13:51:00;12.60;99.90
10662;DHT22;5379;51.034;7.006;2023-11-21T13:53:36;12.50;99.90
10662;DHT22;5379;51.034;7.006;2023-11-21T13:56:06;12.50;99.90
10662;DHT22;5379;51.034;7.006;2023-11-21T13:58:33;12.50;99.90
10662;DHT22;5379;51.034;7.006;2023-11-21T14:01:10;12.50;99.90
10662;DHT22;5379;51.034;7.006;2023-11-21T14:03:50;12.60;99.90
10662;DHT22;5379;51.034;7.006;2023-11-21T14:06:22;12.60;99.90
10662;DHT22;5379;51.034;7.006;2023-11-21T14:08:53;12.60;99.90
10662;DHT22;5379;51.034;7.006;2023-11-21T14:11:23;12.70;99.90
10662;DHT22;5379;51.034;7.006;2023-11-21T14:13:50;12.70;99.90
10662;DHT22;5379;51.034;7.006;2023-11-21T14:16:17;12.90;99.90
10662;DHT22;5379;51.034;7.006;2023-11-21T14:18:43;12.60;99.90
10662;DHT22;5379;51.034;7.006;2023-11-21T14:21:21;12.60;99.90
10662;DHT22;5379;51.034;7.006;2023-11-21T14:23:48;12.60;99.90
10662;DHT22;5379;51.034;7.006;2023-11-21T14:26:15;12.60;99.90
10662;DHT22;5379;51.034;7.006;2023-11-21T14:28:43;12.60;99.90
10662;DHT22;5379;51.034;7.006;2023-11-21T14:31:10;12.60;99.90
10662;DHT22;5379;51.034;7.006;2023-11-21T14:33:39;12.70;99.90
10662;DHT22;5379;51.034;7.006;2023-11-21T14:36:07;12.70;99.90
10662;DHT22;5379;51.034;7.006;2023-11-21T14:38:35;12.70;99.90
10662;DHT22;5379;51.034;7.006;2023-11-21T14:41:02;12.70;99.90
10662;DHT22;5379;51.034;7.006;2023-11-21T14:43:32;12.70;99.90
10662;DHT22;5379;51.034;7.006;2023-11-21T14:46:02;13.20;99.90
10662;DHT22;5379;51.034;7.006;2023-11-21T14:48:32;13.40;99.90
10662;DHT22;5379;51.034;7.006;2023-11-21T14:51:08;13.40;99.90
10662;DHT22;5379;51.034;7.006;2023-11-21T14:53:58;13.20;99.90
10662;DHT22;5379;51.034;7.006;2023-11-21T14:56:31;13.20;99.90
10662;DHT22;5379;51.034;7.006;2023-11-21T14:59:00;13.00;99.90
10662;DHT22;5379;51.034;7.006;2023-11-21T15:01:35;13.00;99.90
10662;DHT22;5379;51.034;7.006;2023-11-21T15:04:11;12.80;99.90
10662;DHT22;5379;51.034;7.006;2023-11-21T15:06:48;12.70;99.90
10662;DHT22;5379;51.034;7.006;2023-11-21T15:09:14;12.80;99.90
10662;DHT22;5379;51.034;7.006;2023-11-21T15:12:05;12.80;99.90
10662;DHT22;5379;51.034;7.006;2023-11-21T15:14:43;12.90;99.90
10662;DHT22;5379;51.034;7.006;2023-11-21T15:17:12;12.80;99.90
10662;DHT22;5379;51.034;7.006;2023-11-21T15:19:44;12.90;99.90
10662;DHT22;5379;51.034;7.006;2023-11-21T15:22:11;13.00;99.90
10662;DHT22;5379;51.034;7.006;2023-11-21T15:24:41;13.00;99.90
10662;DHT22;5379;51.034;7.006;2023-11-21T15:27:10;13.20;99.90
10662;DHT22;5379;51.034;7.006;2023-11-21T15:29:36;12.90;99.90
10662;DHT22;5379;51.034;7.006;2023-11-21T15:32:05;12.70;99.90
10662;DHT22;5379;51.034;7.006;2023-11-21T15:34:34;12.50;99.90
10662;DHT22;5379;51.034;7.006;2023-11-21T15:37:01;12.30;99.90
10662;DHT22;5379;51.034;7.006;2023-11-21T15:39:28;12.40;99.90
10662;DHT22;5379;51.034;7.006;2023-11-21T15:41:56;12.20;99.90
10662;DHT22;5379;51.034;7.006;2023-11-21T15:44:23;12.20;99.90
10662;DHT22;5379;51.034;7.006;2023-11-21T15:46:51;12.10;99.90
10662;DHT22;5379;51.034;7.006;2023-11-21T15:49:18;12.20;99.90
10662;DHT22;5379;51.034;7.006;2023-11-21T15:51:49;12.20;99.90
10662;DHT22;5379;51.034;7.006;2023-11-21T15:54:20;12.20;99.90
10662;DHT22;5379;51.034;7.006;2023-11-21T15:56:47;12.10;99.90
10662;DHT22;5379;51.034;7.006;2023-11-21T15:59:14;12.20;99.90
10662;DHT22;5379;51.034;7.006;2023-11-21T16:01:41;12.10;99.90
10662;DHT22;5379;51.034;7.006;2023-11-21T16:04:12;12.30;99.90
10662;DHT22;5379;51.034;7.006;2023-11-21T16:06:41;12.20;99.90
10662;DHT22;5379;51.034;7.006;2023-11-21T16:09:10;12.20;99.90
10662;DHT22;5379;51.034;7.006;2023-11-21T16:11:46;12.10;99.90
10662;DHT22;5379;51.034;7.006;2023-11-21T16:14:14;12.20;99.90
10662;DHT22;5379;51.034;7.006;2023-11-21T16:16:42;12.40;99.90
10662;DHT22;5379;51.034;7.006;2023-11-21T16:19:09;12.50;99.90
10662;DHT22;5379;51.034;7.006;2023-11-21T16:21:36;12.80;99.90
10662;DHT22;5379;51.034;7.006;2023-11-21T16:24:03;12.90;99.90
10662;DHT22;5379;51.034;7.006;2023-11-21T16:26:32;12.30;99.90
10662;DHT22;5379;51.034;7.006;2023-11-21T16:29:01;13.40;99.90
10662;DHT22;5379;51.034;7.006;2023-11-21T16:31:28;12.00;99.90
10662;DHT22;5379;51.034;7.006;2023-11-21T16:33:55;12.20;99.90
10662;DHT22;5379;51.034;7.006;2023-11-21T16:36:22;12.20;99.90
10662;DHT22;5379;51.034;7.006;2023-11-21T16:38:49;12.30;99.90
10662;DHT22;5379;51.034;7.006;2023-11-21T16:41:16;12.20;99.90
10662;DHT22;5379;51.034;7.006;2023-11-21T16:43:44;12.10;99.90
10662;DHT22;5379;51.034;7.006;2023-11-21T16:46:11;12.10;99.90
10662;DHT22;5379;51.034;7.006;2023-11-21T16:48:39;12.00;99.90
10662;DHT22;5379;51.034;7.006;2023-11-21T16:51:06;11.90;99.90
10662;DHT22;5379;51.034;7.006;2023-11-21T16:53:33;12.00;99.90
10662;DHT22;5379;51.034;7.006;2023-11-21T16:56:00;12.10;99.90
10662;DHT22;5379;51.034;7.006;2023-11-21T16:58:27;12.10;99.90
10662;DHT22;5379;51.034;7.006;2023-11-21T17:00:55;11.90;99.90
10662;DHT22;5379;51.034;7.006;2023-11-21T17:03:23;11.70;99.90
10662;DHT22;5379;51.034;7.006;2023-11-21T17:05:51;11.80;99.90
10662;DHT22;5379;51.034;7.006;2023-11-21T17:08:18;11.90;99.90
10662;DHT22;5379;51.034;7.006;2023-11-21T17:10:46;11.90;99.90
10662;DHT22;5379;51.034;7.006;2023-11-21T17:13:14;11.80;99.90
10662;DHT22;5379;51.034;7.006;2023-11-21T17:15:43;11.60;99.90
10662;DHT22;5379;51.034;7.006;2023-11-21T17:18:11;11.30;99.90
10662;DHT22;5379;51.034;7.006;2023-11-21T17:20:38;11.20;99.90
10662;DHT22;5379;51.034;7.006;2023-11-21T17:23:05;11.30;99.90
10662;DHT22;5379;51.034;7.006;2023-11-21T17:25:34;11.30;99.90
10662;DHT22;5379;51.034;7.006;2023-11-21T17:28:01;11.50;99.90
10662;DHT22;5379;51.034;7.006;2023-11-21T17:30:28;11.40;99.90
10662;DHT22;5379;51.034;7.006;2023-11-21T17:32:55;11.30;99.90
10662;DHT22;5379;51.034;7.006;2023-11-21T17:35:23;11.30;99.90
10662;DHT22;5379;51.034;7.006;2023-11-21T17:37:50;11.20;99.90
10662;DHT22;5379;51.034;7.006;2023-11-21T17:40:17;11.00;99.90
10662;DHT22;5379;51.034;7.006;2023-11-21T17:42:45;11.20;99.90
10662;DHT22;5379;51.034;7.006;2023-11-21T17:45:12;11.10;99.90
10662;DHT22;5379;51.034;7.006;2023-11-21T17:47:40;10.90;99.90
10662;DHT22;5379;51.034;7.006;2023-11-21T17:50:07;10.60;99.90
10662;DHT22;5379;51.034;7.006;2023-11-21T17:52:37;10.60;99.90
10662;DHT22;5379;51.034;7.006;2023-11-21T17:55:04;10.80;99.90
10662;DHT22;5379;51.034;7.006;2023-11-21T17:57:32;10.80;99.90
10662;DHT22;5379;51.034;7.006;2023-11-21T18:00:00;10.70;99.90
10662;DHT22;5379;51.034;7.006;2023-11-21T18:02:27;10.80;99.90
10662;DHT22;5379;51.034;7.006;2023-11-21T18:04:57;10.90;99.90
10662;DHT22;5379;51.034;7.006;2023-11-21T18:07:25;10.80;99.90
10662;DHT22;5379;51.034;7.006;2023-11-21T18:09:53;10.70;99.90
10662;DHT22;5379;51.034;7.006;2023-11-21T18:12:20;10.50;99.90
10662;DHT22;5379;51.034;7.006;2023-11-21T18:14:47;10.70;99.90
10662;DHT22;5379;51.034;7.006;2023-11-21T18:17:14;10.60;99.90
10662;DHT22;5379;51.034;7.006;2023-11-21T18:19:42;10.60;99.90
10662;DHT22;5379;51.034;7.006;2023-11-21T18:22:09;10.30;99.90
10662;DHT22;5379;51.034;7.006;2023-11-21T18:24:36;10.00;99.90
10662;DHT22;5379;51.034;7.006;2023-11-21T18:27:06;9.90;99.90
10662;DHT22;5379;51.034;7.006;2023-11-21T18:29:33;9.80;99.90
10662;DHT22;5379;51.034;7.006;2023-11-21T18:31:59;9.90;99.90
10662;DHT22;5379;51.034;7.006;2023-11-21T18:34:26;10.00;99.90
10662;DHT22;5379;51.034;7.006;2023-11-21T18:36:53;9.70;99.90
10662;DHT22;5379;51.034;7.006;2023-11-21T18:39:20;9.60;99.90
10662;DHT22;5379;51.034;7.006;2023-11-21T18:41:47;9.50;99.90
10662;DHT22;5379;51.034;7.006;2023-11-21T18:44:15;9.60;99.90
10662;DHT22;5379;51.034;7.006;2023-11-21T18:46:42;9.70;99.90
10662;DHT22;5379;51.034;7.006;2023-11-21T18:49:09;9.80;99.90
10662;DHT22;5379;51.034;7.006;2023-11-21T18:51:36;9.70;99.90
10662;DHT22;5379;51.034;7.006;2023-11-21T18:54:02;9.80;99.90
10662;DHT22;5379;51.034;7.006;2023-11-21T18:56:31;9.70;99.90
10662;DHT22;5379;51.034;7.006;2023-11-21T18:58:57;9.80;99.90
10662;DHT22;5379;51.034;7.006;2023-11-21T19:01:27;10.00;99.90
10662;DHT22;5379;51.034;7.006;2023-11-21T19:03:54;9.90;99.90
10662;DHT22;5379;51.034;7.006;2023-11-21T19:06:21;9.60;99.90
10662;DHT22;5379;51.034;7.006;2023-11-21T19:08:48;9.60;99.90
10662;DHT22;5379;51.034;7.006;2023-11-21T19:11:15;9.70;99.90
10662;DHT22;5379;51.034;7.006;2023-11-21T19:13:43;9.80;99.90
10662;DHT22;5379;51.034;7.006;2023-11-21T19:16:09;9.50;99.90
10662;DHT22;5379;51.034;7.006;2023-11-21T19:18:41;9.60;99.90
10662;DHT22;5379;51.034;7.006;2023-11-21T19:21:12;9.80;99.90
10662;DHT22;5379;51.034;7.006;2023-11-21T19:23:39;9.70;99.90
10662;DHT22;5379;51.034;7.006;2023-11-21T19:26:06;9.90;99.90
10662;DHT22;5379;51.034;7.006;2023-11-21T19:28:33;9.90;99.90
10662;DHT22;5379;51.034;7.006;2023-11-21T19:31:00;10.00;99.90
10662;DHT22;5379;51.034;7.006;2023-11-21T19:33:28;9.80;99.90
10662;DHT22;5379;51.034;7.006;2023-11-21T19:35:56;9.70;99.90
10662;DHT22;5379;51.034;7.006;2023-11-21T19:38:23;9.60;99.90
10662;DHT22;5379;51.034;7.006;2023-11-21T19:40:50;9.60;99.90
10662;DHT22;5379;51.034;7.006;2023-11-21T19:43:17;9.60;99.90
10662;DHT22;5379;51.034;7.006;2023-11-21T19:45:44;9.70;99.90
10662;DHT22;5379;51.034;7.006;2023-11-21T19:48:12;9.50;99.90
10662;DHT22;5379;51.034;7.006;2023-11-21T19:50:39;9.70;99.90
10662;DHT22;5379;51.034;7.006;2023-11-21T19:53:08;9.80;99.90
10662;DHT22;5379;51.034;7.006;2023-11-21T19:55:35;9.70;99.90
10662;DHT22;5379;51.034;7.006;2023-11-21T19:58:03;9.50;99.90
10662;DHT22;5379;51.034;7.006;2023-11-21T20:00:32;9.40;99.90
10662;DHT22;5379;51.034;7.006;2023-11-21T20:02:59;9.30;99.90
10662;DHT22;5379;51.034;7.006;2023-11-21T20:05:26;9.60;99.90
10662;DHT22;5379;51.034;7.006;2023-11-21T20:07:53;9.50;99.90
10662;DHT22;5379;51.034;7.006;2023-11-21T20:10:21;9.50;99.90
10662;DHT22;5379;51.034;7.006;2023-11-21T20:12:47;9.50;99.90
10662;DHT22;5379;51.034;7.006;2023-11-21T20:15:16;9.50;99.90
10662;DHT22;5379;51.034;7.006;2023-11-21T20:17:43;9.50;99.90
10662;DHT22;5379;51.034;7.006;2023-11-21T20:20:13;9.30;99.90
10662;DHT22;5379;51.034;7.006;2023-11-21T20:22:41;9.50;99.90
10662;DHT22;5379;51.034;7.006;2023-11-21T20:25:11;9.40;99.90
10662;DHT22;5379;51.034;7.006;2023-11-21T20:27:40;9.50;99.90
10662;DHT22;5379;51.034;7.006;2023-11-21T20:30:08;9.40;99.90
10662;DHT22;5379;51.034;7.006;2023-11-21T20:32:35;9.40;99.90
10662;DHT22;5379;51.034;7.006;2023-11-21T20:35:03;9.30;99.90
10662;DHT22;5379;51.034;7.006;2023-11-21T20:37:31;9.20;99.90
10662;DHT22;5379;51.034;7.006;2023-11-21T20:39:59;9.20;99.90
10662;DHT22;5379;51.034;7.006;2023-11-21T20:42:26;9.30;99.90